Terminal Aerodrome Forecast
Issued by NWS Sterling, VA

Current Version | Previous Version | Text Only | Print | Product List | Glossary On
Versions: 1 2 3 4 5 6 7 8 9 10 11 12 13 14 15 16 17 18 19 20 21 22
000
FTUS41 KLWX 031434 AAA
TAFMRB
TAF AMD
KMRB 031434Z 0315/0412 VRB03KT 6SM BR SCT050 BKN150
     FM032200 15006KT P6SM -SHRA OVC050
     FM040100 14004KT 5SM -SHRA BR OVC040
     FM040400 13005KT 2SM -SHRA BR OVC030
     FM040900 06004KT 2SM -SHRA BR OVC008=

USA.gov is the U.S. government's official web portal to all federal, state and local government web resources and services.